Flight Number: EUR1096 Duration: 3:30
Departure: Heraklion (Crete) (LGIR) at 18:30 Distance: 1449 Nm
Arrival: Gatwick Airport (EGKK) at 22:00 Equipment: MD-81

Weather Information
Heraklion Airport , Greece (LGIR) 35-20N 025-11E 39M Feb 24, 2018 - 12:50 AM EST / 2018.02.24 0550 UTC
Wind: Variable at 3 MPH (3 KT):0
Visibility: greater than 7 mile(s):0
Sky conditions: partly cloudy Temperature: 57 F (14 C) Dew Point: 50 F (10 C) Relative Humidity: 76% Pressure (altimeter): 29.74 in. Hg (1007 hPa)
ob: LGIR 240550Z VRB03KT 9999 FEW025 SCT080 14/10 Q1007 NOSIG cycle: 6
Sunrise: 04:57 Sunset: 16:07 (UTC)

London / Gatwick Airport, United Kingdom (EGKK) 51-09N 000-11W 0M Feb 24, 2018 - 12:50 AM EST / 2018.02.24 0550 UTC
Wind: from the ENE (070 degrees) at 9 MPH (8 KT):0
Visibility: greater than 7 mile(s):0 Temperature: 26 F (-3 C)
Windchill: 17 F (-8 C):1 Dew Point: 23 F (-5 C) Relative Humidity: 86% Pressure (altimeter): 30.09 in. Hg (1019 hPa)
ob: EGKK 240550Z 07008KT CAVOK M03/M05 Q1019 cycle: 6
Sunrise: 06:58 Sunset: 17:29 (UTC)

TAF:2018/02/24 06:19 TAF EGKK 240454Z 2406/2512 08012KT 9999 SCT030 TEMPO 2406/2410 8000 PROB30 TEMPO 2412/2421 09015G25KT

Previous Pireps for this route
Date Aircraft Flight time Fuel used Landing rate On time
2013-10-27A32104.2327006-181Charter
2015-01-01MD-813.53245290No
2015-03-25MD-8103.4325616-374Yes
(pireps marked green are flown by you)

Route map